createdAt,value
2019-03-25T00:00:28.268Z,980.54
2019-03-25T00:01:28.219Z,980.54
2019-03-25T00:02:28.091Z,980.49
2019-03-25T00:03:28.054Z,980.49
2019-03-25T00:04:27.977Z,980.52
2019-03-25T00:05:27.908Z,980.53
2019-03-25T00:06:27.773Z,980.49
2019-03-25T00:07:27.753Z,980.45
2019-03-25T00:08:27.606Z,980.47
2019-03-25T00:09:27.533Z,980.47
2019-03-25T00:10:27.511Z,980.45
2019-03-25T00:11:27.423Z,980.46
2019-03-25T00:12:27.347Z,980.38
2019-03-25T00:13:27.216Z,980.41
2019-03-25T00:14:27.142Z,980.41
2019-03-25T00:15:27.078Z,980.42
2019-03-25T00:16:26.988Z,980.38
2019-03-25T00:17:27.042Z,980.39
2019-03-25T00:18:26.932Z,980.34
2019-03-25T00:19:26.740Z,980.34
2019-03-25T00:20:26.659Z,980.36
2019-03-25T00:21:26.617Z,980.37
2019-03-25T00:22:26.588Z,980.35
2019-03-25T00:23:26.512Z,980.33
2019-03-25T00:24:37.923Z,980.32
2019-03-25T00:25:26.292Z,980.34
2019-03-25T00:26:26.254Z,980.33
2019-03-25T00:27:26.218Z,980.33
2019-03-25T00:28:26.127Z,980.33
2019-03-25T00:29:25.946Z,980.32
2019-03-25T00:30:25.935Z,980.26
2019-03-25T00:31:25.850Z,980.26
2019-03-25T00:32:25.714Z,980.23
2019-03-25T00:33:25.700Z,980.23
2019-03-25T00:34:25.620Z,980.22
2019-03-25T00:35:25.557Z,980.29
2019-03-25T00:36:25.408Z,980.26
2019-03-25T00:37:25.363Z,980.27
2019-03-25T00:38:25.292Z,980.27
2019-03-25T00:39:25.215Z,980.30
2019-03-25T00:40:25.078Z,980.26
2019-03-25T00:41:25.067Z,980.23
2019-03-25T00:42:24.916Z,980.21
2019-03-25T00:43:24.911Z,980.15
2019-03-25T00:44:24.823Z,980.13
2019-03-25T00:45:24.719Z,980.12
2019-03-25T00:46:24.628Z,980.13
2019-03-25T00:47:24.575Z,980.14
2019-03-25T00:48:24.503Z,980.13
2019-03-25T00:49:24.427Z,980.08
2019-03-25T00:50:24.337Z,980.12
2019-03-25T00:51:24.232Z,980.11
2019-03-25T00:52:24.239Z,980.11
2019-03-25T00:53:24.041Z,980.08
2019-03-25T00:54:24.061Z,980.13
2019-03-25T00:55:23.883Z,980.11
2019-03-25T00:56:23.807Z,980.05
2019-03-25T00:57:23.800Z,980.04
2019-03-25T00:58:23.707Z,980.03
2019-03-25T00:59:23.591Z,980.02
2019-03-25T01:00:23.536Z,980.00
2019-03-25T01:01:23.469Z,979.99
2019-03-25T01:02:23.345Z,979.97
2019-03-25T01:03:23.319Z,979.97
2019-03-25T01:04:23.222Z,979.93
2019-03-25T01:05:23.084Z,979.91
2019-03-25T01:06:23.025Z,979.88
2019-03-25T01:07:22.927Z,979.87
2019-03-25T01:08:22.860Z,979.83
2019-03-25T01:09:22.884Z,979.85
2019-03-25T01:10:22.694Z,979.86
2019-03-25T01:11:22.662Z,979.87
2019-03-25T01:12:22.663Z,979.88
2019-03-25T01:13:22.488Z,979.80
2019-03-25T01:14:22.445Z,979.84
2019-03-25T01:15:22.338Z,979.82
2019-03-25T01:16:22.240Z,979.83
2019-03-25T01:17:22.193Z,979.84
2019-03-25T01:18:22.125Z,979.81
2019-03-25T01:19:22.024Z,979.79
2019-03-25T01:20:21.990Z,979.74
2019-03-25T01:21:21.874Z,979.72
2019-03-25T01:22:21.746Z,979.73
2019-03-25T01:23:21.707Z,979.71
2019-03-25T01:24:21.595Z,979.74
2019-03-25T01:25:21.574Z,979.76
2019-03-25T01:26:21.433Z,979.80
2019-03-25T01:27:21.352Z,979.76
2019-03-25T01:28:21.327Z,979.74
2019-03-25T01:29:21.247Z,979.76
2019-03-25T01:30:21.177Z,979.70
2019-03-25T01:31:21.069Z,979.69
2019-03-25T01:32:21.021Z,979.76
2019-03-25T01:33:20.947Z,979.72
2019-03-25T01:34:20.800Z,979.70
2019-03-25T01:35:20.721Z,979.68
2019-03-25T01:36:20.701Z,979.63
2019-03-25T01:37:20.549Z,979.66
2019-03-25T01:38:20.550Z,979.65
2019-03-25T01:39:20.466Z,979.65
2019-03-25T01:40:20.339Z,979.63
2019-03-25T01:41:20.229Z,979.66
2019-03-25T01:42:20.201Z,979.59
2019-03-25T01:43:20.142Z,979.60
2019-03-25T01:44:19.994Z,979.59
2019-03-25T01:45:20.006Z,979.58
2019-03-25T01:46:19.846Z,979.55
2019-03-25T01:47:19.833Z,979.58
2019-03-25T01:48:19.691Z,979.59
2019-03-25T01:49:19.665Z,979.58
2019-03-25T01:50:19.558Z,979.57
2019-03-25T01:51:19.524Z,979.58
2019-03-25T01:52:19.354Z,979.55
2019-03-25T01:53:19.282Z,979.60
2019-03-25T01:54:19.247Z,979.56
2019-03-25T01:55:19.150Z,979.55
2019-03-25T01:56:19.076Z,979.55
2019-03-25T01:57:19.057Z,979.51
2019-03-25T01:58:18.878Z,979.56
2019-03-25T01:59:18.791Z,979.55
2019-03-25T02:00:18.720Z,979.55
2019-03-25T02:01:18.710Z,979.51
2019-03-25T02:02:18.584Z,979.54
2019-03-25T02:03:18.506Z,979.49
2019-03-25T02:04:18.407Z,979.50
2019-03-25T02:05:18.317Z,979.47
2019-03-25T02:06:18.238Z,979.46
2019-03-25T02:07:18.256Z,979.45
2019-03-25T02:08:18.127Z,979.47
2019-03-25T02:09:18.005Z,979.52
2019-03-25T02:10:17.923Z,979.47
2019-03-25T02:11:17.879Z,979.55
2019-03-25T02:12:17.764Z,979.55
2019-03-25T02:13:17.761Z,979.52
2019-03-25T02:14:17.641Z,979.52
2019-03-25T02:15:17.522Z,979.55
2019-03-25T02:16:17.489Z,979.52
2019-03-25T02:17:17.413Z,979.50
2019-03-25T02:18:17.301Z,979.50
2019-03-25T02:19:17.246Z,979.48
2019-03-25T02:20:25.846Z,979.47
2019-03-25T02:21:17.081Z,979.49
2019-03-25T02:22:17.042Z,979.49
2019-03-25T02:23:16.895Z,979.51
2019-03-25T02:24:16.814Z,979.50
2019-03-25T02:25:25.326Z,979.49
2019-03-25T02:26:16.646Z,979.47
2019-03-25T02:27:16.656Z,979.51
2019-03-25T02:28:16.527Z,979.49
2019-03-25T02:29:16.453Z,979.48
2019-03-25T02:30:16.330Z,979.53
2019-03-25T02:31:16.277Z,979.51
2019-03-25T02:32:16.174Z,979.51
2019-03-25T02:33:16.192Z,979.53
2019-03-25T02:34:16.051Z,979.54
2019-03-25T02:35:15.974Z,979.46
2019-03-25T02:36:15.851Z,979.47
2019-03-25T02:37:15.763Z,979.44
2019-03-25T02:38:15.725Z,979.49
2019-03-25T02:39:15.606Z,979.49
2019-03-25T02:40:15.527Z,979.48
2019-03-25T02:41:18.544Z,979.44
2019-03-25T02:42:15.369Z,979.46
2019-03-25T02:43:15.285Z,979.46
2019-03-25T02:44:15.204Z,979.41
2019-03-25T02:45:15.140Z,979.44
2019-03-25T02:46:15.042Z,979.40
2019-03-25T02:47:14.969Z,979.36
2019-03-25T02:48:14.917Z,979.41
2019-03-25T02:49:14.804Z,979.42
2019-03-25T02:50:14.723Z,979.41
2019-03-25T02:51:14.640Z,979.39
2019-03-25T02:52:14.567Z,979.43
2019-03-25T02:53:14.489Z,979.40
2019-03-25T02:54:14.451Z,979.43
2019-03-25T02:55:14.338Z,979.42
2019-03-25T02:56:14.323Z,979.40
2019-03-25T02:57:14.188Z,979.41
2019-03-25T02:58:14.108Z,979.39
2019-03-25T02:59:14.068Z,979.37
2019-03-25T03:00:13.982Z,979.35
2019-03-25T03:01:13.894Z,979.38
2019-03-25T03:02:13.871Z,979.39
2019-03-25T03:03:13.688Z,979.37
2019-03-25T03:04:13.656Z,979.38
2019-03-25T03:05:13.565Z,979.40
2019-03-25T03:06:13.499Z,979.40
2019-03-25T03:07:13.402Z,979.39
2019-03-25T03:08:13.341Z,979.43
2019-03-25T03:09:13.254Z,979.41
2019-03-25T03:10:13.170Z,979.40
2019-03-25T03:11:13.115Z,979.42
2019-03-25T03:12:12.956Z,979.41
2019-03-25T03:13:12.941Z,979.42
2019-03-25T03:14:15.300Z,979.42
2019-03-25T03:15:12.761Z,979.40
2019-03-25T03:16:12.662Z,979.38
2019-03-25T03:17:12.559Z,979.36
2019-03-25T03:18:12.556Z,979.37
2019-03-25T03:19:12.427Z,979.36
2019-03-25T03:20:12.375Z,979.39
2019-03-25T03:21:12.271Z,979.36
2019-03-25T03:22:12.181Z,979.32
2019-03-25T03:23:12.127Z,979.33
2019-03-25T03:24:12.042Z,979.32
2019-03-25T03:25:11.923Z,979.30
2019-03-25T03:26:11.834Z,979.33
2019-03-25T03:27:11.793Z,979.30
2019-03-25T03:28:11.735Z,979.31
2019-03-25T03:29:11.640Z,979.30
2019-03-25T03:30:11.645Z,979.30
2019-03-25T03:31:11.502Z,979.26
2019-03-25T03:32:11.409Z,979.26
2019-03-25T03:33:11.276Z,979.26
2019-03-25T03:34:11.255Z,979.24
2019-03-25T03:35:11.266Z,979.24
2019-03-25T03:36:11.119Z,979.25
2019-03-25T03:37:11.016Z,979.27
2019-03-25T03:38:10.892Z,979.23
2019-03-25T03:39:10.845Z,979.24
2019-03-25T03:40:10.778Z,979.22
2019-03-25T03:41:10.624Z,979.23
2019-03-25T03:42:10.538Z,979.27
2019-03-25T03:43:10.462Z,979.28
2019-03-25T03:44:12.220Z,979.30
2019-03-25T03:45:10.295Z,979.28
2019-03-25T03:46:10.219Z,979.26
2019-03-25T03:47:10.141Z,979.25
2019-03-25T03:48:10.118Z,979.25
2019-03-25T03:49:10.030Z,979.21
2019-03-25T03:50:09.897Z,979.27
2019-03-25T03:51:09.828Z,979.23
2019-03-25T03:52:09.802Z,979.21
2019-03-25T03:53:09.656Z,979.24
2019-03-25T03:54:09.581Z,979.24
2019-03-25T03:55:09.494Z,979.26
2019-03-25T03:56:13.268Z,979.25
2019-03-25T03:57:09.393Z,979.28
2019-03-25T03:58:09.290Z,979.25
2019-03-25T03:59:09.168Z,979.27
2019-03-25T04:00:09.165Z,979.32
2019-03-25T04:01:09.001Z,979.25
2019-03-25T04:02:08.962Z,979.25
2019-03-25T04:03:08.916Z,979.23
2019-03-25T04:04:08.762Z,979.27
2019-03-25T04:05:08.746Z,979.24
2019-03-25T04:06:08.610Z,979.22
2019-03-25T04:07:08.564Z,979.20
2019-03-25T04:08:08.490Z,979.21
2019-03-25T04:09:08.353Z,979.18
2019-03-25T04:10:08.348Z,979.17
2019-03-25T04:11:08.203Z,979.18
2019-03-25T04:12:08.120Z,979.19
2019-03-25T04:13:08.035Z,979.19
2019-03-25T04:14:08.008Z,979.18
2019-03-25T04:15:07.885Z,979.19
2019-03-25T04:16:07.798Z,979.20
2019-03-25T04:17:07.765Z,979.18
2019-03-25T04:18:07.660Z,979.19
2019-03-25T04:19:07.606Z,979.18
2019-03-25T04:20:07.475Z,979.17
2019-03-25T04:21:07.463Z,979.16
2019-03-25T04:22:07.313Z,979.17
2019-03-25T04:23:07.286Z,979.13
2019-03-25T04:24:07.195Z,979.14
2019-03-25T04:25:07.134Z,979.15
2019-03-25T04:26:07.189Z,979.19
2019-03-25T04:27:06.965Z,979.21
2019-03-25T04:28:06.815Z,979.19
2019-03-25T04:29:06.752Z,979.22
2019-03-25T04:30:06.723Z,979.23
2019-03-25T04:31:06.634Z,979.21
2019-03-25T04:32:06.533Z,979.23
2019-03-25T04:33:06.447Z,979.26
2019-03-25T04:34:06.335Z,979.27
2019-03-25T04:35:06.261Z,979.24
2019-03-25T04:36:06.189Z,979.26
2019-03-25T04:37:06.098Z,979.28
2019-03-25T04:38:06.016Z,979.31
2019-03-25T04:39:05.977Z,979.26
2019-03-25T04:40:05.861Z,979.31
2019-03-25T04:41:05.834Z,979.31
2019-03-25T04:42:05.736Z,979.28
2019-03-25T04:43:05.663Z,979.30
2019-03-25T04:44:05.575Z,979.33
2019-03-25T04:45:05.472Z,979.34
2019-03-25T04:46:05.393Z,979.33
2019-03-25T04:47:05.310Z,979.33
2019-03-25T04:48:05.306Z,979.35
2019-03-25T04:49:05.185Z,979.38
2019-03-25T04:50:05.062Z,979.37
2019-03-25T04:51:04.971Z,979.37
2019-03-25T04:52:04.878Z,979.40
2019-03-25T04:53:04.869Z,979.41
2019-03-25T04:54:04.780Z,979.44
2019-03-25T04:55:04.709Z,979.40
2019-03-25T04:56:04.614Z,979.38
2019-03-25T04:57:04.564Z,979.42
2019-03-25T04:58:04.390Z,979.43
2019-03-25T04:59:05.529Z,979.43
2019-03-25T05:00:04.227Z,979.47
2019-03-25T05:01:04.153Z,979.44
2019-03-25T05:02:04.066Z,979.47
2019-03-25T05:03:04.036Z,979.46
2019-03-25T05:04:03.905Z,979.48
2019-03-25T05:05:03.882Z,979.47
2019-03-25T05:06:03.756Z,979.45
2019-03-25T05:07:03.686Z,979.47
2019-03-25T05:08:03.622Z,979.45
2019-03-25T05:09:03.494Z,979.46
2019-03-25T05:10:03.413Z,979.47
2019-03-25T05:11:03.875Z,979.49
2019-03-25T05:12:03.253Z,979.53
2019-03-25T05:13:03.219Z,979.50
2019-03-25T05:14:03.163Z,979.51
2019-03-25T05:15:03.021Z,979.54
2019-03-25T05:16:03.010Z,979.57
2019-03-25T05:17:02.853Z,979.55
2019-03-25T05:18:02.775Z,979.57
2019-03-25T05:19:02.701Z,979.55
2019-03-25T05:20:02.611Z,979.53
2019-03-25T05:21:02.585Z,979.54
2019-03-25T05:22:02.456Z,979.48
2019-03-25T05:23:02.355Z,979.52
2019-03-25T05:24:02.287Z,979.52
2019-03-25T05:25:02.325Z,979.50
2019-03-25T05:26:02.182Z,979.50
2019-03-25T05:27:02.037Z,979.50
2019-03-25T05:28:01.991Z,979.51
2019-03-25T05:29:01.875Z,979.48
2019-03-25T05:30:01.856Z,979.46
2019-03-25T05:31:01.714Z,979.42
2019-03-25T05:32:01.631Z,979.43
2019-03-25T05:33:01.596Z,979.41
2019-03-25T05:34:01.473Z,979.39
2019-03-25T05:35:01.426Z,979.37
2019-03-25T05:36:01.296Z,979.36
2019-03-25T05:37:01.218Z,979.33
2019-03-25T05:38:01.139Z,979.32
2019-03-25T05:39:01.071Z,979.33
2019-03-25T05:40:00.972Z,979.33
2019-03-25T05:41:00.964Z,979.36
2019-03-25T05:42:00.817Z,979.34
2019-03-25T05:43:00.828Z,979.36
2019-03-25T05:44:00.670Z,979.34
2019-03-25T05:45:00.573Z,979.35
2019-03-25T05:46:00.585Z,979.40
2019-03-25T05:47:00.465Z,979.38
2019-03-25T05:48:00.413Z,979.38
2019-03-25T05:49:00.593Z,979.39
2019-03-25T05:50:00.380Z,979.45
2019-03-25T05:51:00.079Z,979.42
2019-03-25T05:52:00.030Z,979.43
2019-03-25T05:52:59.934Z,979.41
2019-03-25T05:53:59.973Z,979.44
2019-03-25T05:54:59.755Z,979.44
2019-03-25T05:55:59.691Z,979.39
2019-03-25T05:57:02.770Z,979.40
2019-03-25T05:57:59.512Z,979.37
2019-03-25T05:58:59.478Z,979.42
2019-03-25T05:59:59.346Z,979.33
2019-03-25T06:00:59.259Z,979.34
2019-03-25T06:01:59.256Z,979.35
2019-03-25T06:02:59.104Z,979.37
2019-03-25T06:03:59.022Z,979.38
2019-03-25T06:04:58.934Z,979.36
2019-03-25T06:05:58.942Z,979.33
2019-03-25T06:06:58.774Z,979.35
2019-03-25T06:07:58.766Z,979.31
2019-03-25T06:08:58.610Z,979.29
2019-03-25T06:09:58.589Z,979.31
2019-03-25T06:10:58.471Z,979.29
2019-03-25T06:11:58.421Z,979.29
2019-03-25T06:12:58.349Z,979.32
2019-03-25T06:13:58.204Z,979.31
2019-03-25T06:14:58.185Z,979.30
2019-03-25T06:15:58.152Z,979.25
2019-03-25T06:16:58.022Z,979.24
2019-03-25T06:17:57.983Z,979.22
2019-03-25T06:18:57.854Z,979.22
2019-03-25T06:19:57.784Z,979.20
2019-03-25T06:20:57.684Z,979.21
2019-03-25T06:21:57.612Z,979.21
2019-03-25T06:22:57.464Z,979.21
2019-03-25T06:23:57.417Z,979.22
2019-03-25T06:24:57.320Z,979.23
2019-03-25T06:25:57.220Z,979.22
2019-03-25T06:26:57.169Z,979.19
2019-03-25T06:27:57.116Z,979.19
2019-03-25T06:28:56.977Z,979.15
2019-03-25T06:29:56.898Z,979.17
2019-03-25T06:30:56.861Z,979.16
2019-03-25T06:31:56.740Z,979.13
2019-03-25T06:32:56.677Z,979.16
2019-03-25T06:33:56.612Z,979.16
2019-03-25T06:34:56.512Z,979.22
2019-03-25T06:35:56.444Z,979.21
2019-03-25T06:36:56.322Z,979.25
2019-03-25T06:37:56.249Z,979.20
2019-03-25T06:38:56.212Z,979.24
2019-03-25T06:39:56.121Z,979.24
2019-03-25T06:40:56.018Z,979.20
2019-03-25T06:41:55.970Z,979.23
2019-03-25T06:42:55.832Z,979.23
2019-03-25T06:43:55.753Z,979.27
2019-03-25T06:44:55.714Z,979.27
2019-03-25T06:45:55.597Z,979.28
2019-03-25T06:46:55.503Z,979.27
2019-03-25T06:47:55.479Z,979.25
2019-03-25T06:48:55.347Z,979.25
2019-03-25T06:49:55.319Z,979.27
2019-03-25T06:50:55.262Z,979.24
2019-03-25T06:51:55.098Z,979.24
2019-03-25T06:52:55.016Z,979.25
2019-03-25T06:53:54.937Z,979.23
2019-03-25T06:54:54.855Z,979.25
2019-03-25T06:55:54.778Z,979.21
2019-03-25T06:56:54.725Z,979.26
2019-03-25T06:57:54.607Z,979.29
2019-03-25T06:58:54.542Z,979.25
2019-03-25T06:59:54.517Z,979.28
2019-03-25T07:00:54.416Z,979.31
2019-03-25T07:01:54.321Z,979.27
2019-03-25T07:02:54.225Z,979.30
2019-03-25T07:03:54.119Z,979.26
2019-03-25T07:04:54.046Z,979.30
2019-03-25T07:05:53.966Z,979.29
2019-03-25T07:06:53.919Z,979.24
2019-03-25T07:07:53.800Z,979.21
2019-03-25T07:08:53.717Z,979.19
2019-03-25T07:09:53.689Z,979.22
2019-03-25T07:10:53.548Z,979.20
2019-03-25T07:11:53.482Z,979.16
2019-03-25T07:12:53.397Z,979.15
2019-03-25T07:13:53.363Z,979.14
2019-03-25T07:14:53.292Z,979.13
2019-03-25T07:15:53.241Z,979.13
2019-03-25T07:16:53.070Z,979.08
2019-03-25T07:17:52.992Z,979.08
2019-03-25T07:18:52.911Z,979.09
2019-03-25T07:19:52.813Z,979.05
2019-03-25T07:20:52.736Z,979.07
2019-03-25T07:21:52.706Z,979.04
2019-03-25T07:22:52.572Z,979.01
2019-03-25T07:23:52.494Z,978.96
2019-03-25T07:24:52.469Z,978.97
2019-03-25T07:25:52.364Z,978.94
2019-03-25T07:26:52.267Z,978.92
2019-03-25T07:27:52.170Z,978.91
2019-03-25T07:28:52.099Z,978.94
2019-03-25T07:29:52.051Z,978.97
2019-03-25T07:30:51.965Z,978.96
2019-03-25T07:31:51.916Z,978.92
2019-03-25T07:32:51.765Z,978.90
2019-03-25T07:33:51.684Z,978.94
2019-03-25T07:34:51.655Z,978.90
2019-03-25T07:35:51.571Z,978.88
2019-03-25T07:36:51.453Z,978.94
2019-03-25T07:37:51.450Z,979.02
2019-03-25T07:38:51.274Z,979.01
2019-03-25T07:39:51.205Z,979.10
2019-03-25T07:40:51.186Z,979.01
2019-03-25T07:41:51.099Z,978.97
2019-03-25T07:42:50.954Z,978.96
2019-03-25T07:43:50.931Z,978.97
2019-03-25T07:44:50.822Z,978.92
2019-03-25T07:45:50.728Z,978.89
2019-03-25T07:46:50.649Z,978.88
2019-03-25T07:47:50.619Z,978.89
2019-03-25T07:48:50.524Z,978.92
2019-03-25T07:49:50.474Z,978.89
2019-03-25T07:50:50.362Z,978.86
2019-03-25T07:51:50.337Z,978.91
2019-03-25T07:52:50.189Z,978.91
2019-03-25T07:53:51.139Z,978.83
2019-03-25T07:54:50.038Z,978.85
2019-03-25T07:55:49.935Z,978.86
2019-03-25T07:56:49.872Z,978.89
2019-03-25T07:57:49.762Z,978.94
2019-03-25T07:58:49.715Z,978.85
2019-03-25T07:59:49.602Z,978.71
2019-03-25T08:00:49.590Z,978.78
2019-03-25T08:01:49.541Z,978.76
2019-03-25T08:02:49.358Z,978.81
2019-03-25T08:03:49.334Z,978.85
2019-03-25T08:04:49.230Z,978.77
2019-03-25T08:05:49.206Z,978.82
2019-03-25T08:06:49.091Z,978.74
2019-03-25T08:07:49.024Z,978.76
2019-03-25T08:08:48.963Z,978.70
2019-03-25T08:09:48.799Z,978.65
2019-03-25T08:10:48.728Z,978.69
2019-03-25T08:11:48.684Z,978.58
2019-03-25T08:12:48.594Z,978.56
2019-03-25T08:13:48.508Z,978.67
2019-03-25T08:14:48.433Z,978.73
2019-03-25T08:15:48.371Z,978.68
2019-03-25T08:16:48.292Z,978.77
2019-03-25T08:17:48.256Z,978.71
2019-03-25T08:18:48.143Z,978.77
2019-03-25T08:19:48.066Z,978.70
2019-03-25T08:20:47.954Z,978.75
2019-03-25T08:21:47.850Z,978.72
2019-03-25T08:22:47.800Z,978.71
2019-03-25T08:23:47.675Z,978.72
2019-03-25T08:24:47.601Z,978.76
2019-03-25T08:25:47.537Z,978.78
2019-03-25T08:26:47.487Z,978.72
2019-03-25T08:27:47.363Z,978.76
2019-03-25T08:28:47.322Z,978.77
2019-03-25T08:29:47.305Z,978.75
2019-03-25T08:30:47.112Z,978.75
2019-03-25T08:31:47.081Z,978.76
2019-03-25T08:32:46.986Z,978.68
2019-03-25T08:33:46.877Z,978.73
2019-03-25T08:34:46.856Z,978.73
2019-03-25T08:35:46.762Z,978.72
2019-03-25T08:36:46.700Z,978.72
2019-03-25T08:37:46.614Z,978.78
2019-03-25T08:38:46.554Z,978.82
2019-03-25T08:39:46.453Z,978.84
2019-03-25T08:40:46.337Z,978.89
2019-03-25T08:41:46.237Z,978.96
2019-03-25T08:42:46.210Z,978.91
2019-03-25T08:43:46.082Z,978.90
2019-03-25T08:44:46.061Z,978.93
2019-03-25T08:45:46.029Z,978.98
2019-03-25T08:46:45.916Z,978.90
2019-03-25T08:47:45.803Z,978.88
2019-03-25T08:48:45.678Z,978.96
2019-03-25T08:49:45.618Z,978.86
2019-03-25T08:50:45.624Z,978.95
2019-03-25T08:51:45.498Z,978.86
2019-03-25T08:52:45.437Z,978.92
2019-03-25T08:53:45.319Z,978.95
2019-03-25T08:54:45.298Z,978.90
2019-03-25T08:55:45.116Z,978.95
2019-03-25T08:56:45.029Z,979.00
2019-03-25T08:57:44.988Z,979.06
2019-03-25T08:58:44.909Z,979.04
2019-03-25T08:59:44.845Z,979.07
2019-03-25T09:00:44.766Z,979.12
2019-03-25T09:01:44.670Z,979.06
2019-03-25T09:02:44.584Z,979.13
2019-03-25T09:03:44.504Z,979.12
2019-03-25T09:04:44.387Z,979.14
2019-03-25T09:05:44.321Z,979.25
2019-03-25T09:06:44.237Z,979.17
2019-03-25T09:07:44.206Z,979.18
2019-03-25T09:08:44.123Z,979.24
2019-03-25T09:09:44.034Z,979.21
2019-03-25T09:10:43.986Z,979.17
2019-03-25T09:11:43.895Z,979.19
2019-03-25T09:12:43.813Z,979.23
2019-03-25T09:13:43.771Z,979.31
2019-03-25T09:14:43.638Z,979.27
2019-03-25T09:15:43.555Z,979.28
2019-03-25T09:16:43.427Z,979.28
2019-03-25T09:17:43.373Z,979.29
2019-03-25T09:18:43.274Z,979.29
2019-03-25T09:19:43.227Z,979.27
2019-03-25T09:20:43.158Z,979.25
2019-03-25T09:21:43.033Z,979.25
2019-03-25T09:22:42.997Z,979.22
2019-03-25T09:23:42.878Z,979.26
2019-03-25T09:24:42.785Z,979.20
2019-03-25T09:25:42.702Z,979.23
2019-03-25T09:26:42.621Z,979.20
2019-03-25T09:27:42.612Z,979.20
2019-03-25T09:28:42.466Z,979.19
2019-03-25T09:29:42.443Z,979.15
2019-03-25T09:30:42.373Z,979.18
2019-03-25T09:31:42.223Z,979.18
2019-03-25T09:32:42.137Z,979.20
2019-03-25T09:33:42.104Z,979.16
2019-03-25T09:34:41.998Z,979.19
2019-03-25T09:35:41.993Z,979.17
2019-03-25T09:36:41.884Z,979.23
2019-03-25T09:37:41.745Z,979.17
2019-03-25T09:38:41.746Z,979.18
2019-03-25T09:39:41.633Z,979.17
2019-03-25T09:40:41.577Z,979.20
2019-03-25T09:41:41.497Z,979.20
2019-03-25T09:42:41.398Z,979.11
2019-03-25T09:43:41.283Z,979.10
2019-03-25T09:44:41.199Z,979.21
2019-03-25T09:45:41.122Z,979.11
2019-03-25T09:46:41.020Z,979.16
2019-03-25T09:47:41.012Z,979.10
2019-03-25T09:48:40.952Z,979.09
2019-03-25T09:49:40.772Z,979.07
2019-03-25T09:50:40.753Z,979.02
2019-03-25T09:51:40.701Z,979.02
2019-03-25T09:52:40.599Z,979.09
2019-03-25T09:53:40.520Z,979.04
2019-03-25T09:54:40.416Z,979.06
2019-03-25T09:55:40.341Z,979.06
2019-03-25T09:56:40.272Z,978.98
2019-03-25T09:57:40.204Z,978.96
2019-03-25T09:58:40.136Z,979.00
2019-03-25T09:59:39.999Z,978.96
2019-03-25T10:00:39.951Z,978.96
2019-03-25T10:01:39.825Z,978.87
2019-03-25T10:02:39.778Z,978.87
2019-03-25T10:03:39.663Z,978.84
2019-03-25T10:04:39.633Z,978.97
2019-03-25T10:05:39.567Z,978.86
2019-03-25T10:06:39.489Z,978.92
2019-03-25T10:07:39.343Z,978.83
2019-03-25T10:08:39.291Z,978.85
2019-03-25T10:09:39.282Z,978.91
2019-03-25T10:10:39.100Z,978.78
2019-03-25T10:11:39.023Z,978.81
2019-03-25T10:12:38.963Z,978.80
2019-03-25T10:13:38.912Z,978.82
2019-03-25T10:14:38.836Z,978.87
2019-03-25T10:15:38.730Z,978.85
2019-03-25T10:16:38.641Z,978.84
2019-03-25T10:17:38.597Z,978.88
2019-03-25T10:18:38.542Z,978.88
2019-03-25T10:19:38.448Z,978.86
2019-03-25T10:20:38.327Z,978.89
2019-03-25T10:21:38.230Z,978.87
2019-03-25T10:22:38.194Z,978.88
2019-03-25T10:23:38.082Z,978.93
2019-03-25T10:24:37.983Z,978.97
2019-03-25T10:25:37.924Z,978.97
2019-03-25T10:26:37.875Z,978.86
2019-03-25T10:27:37.782Z,978.89
2019-03-25T10:28:47.916Z,978.82
2019-03-25T10:29:37.604Z,978.89
2019-03-25T10:30:37.525Z,978.81
2019-03-25T10:31:37.489Z,978.89
2019-03-25T10:32:37.423Z,978.87
2019-03-25T10:33:37.283Z,978.87
2019-03-25T10:34:37.233Z,978.86
2019-03-25T10:35:37.118Z,978.87
2019-03-25T10:36:37.037Z,978.81
2019-03-25T10:37:37.063Z,978.79
2019-03-25T10:38:36.879Z,978.74
2019-03-25T10:39:36.790Z,978.79
2019-03-25T10:40:36.717Z,978.79
2019-03-25T10:41:38.466Z,978.75
2019-03-25T10:42:36.559Z,978.70
2019-03-25T10:43:36.478Z,978.73
2019-03-25T10:44:36.398Z,978.73
2019-03-25T10:45:36.328Z,978.80
2019-03-25T10:46:36.279Z,978.73
2019-03-25T10:47:36.226Z,978.77
2019-03-25T10:48:36.087Z,978.77
2019-03-25T10:49:36.064Z,978.72
2019-03-25T10:50:36.023Z,978.76
2019-03-25T10:51:35.848Z,978.89
2019-03-25T10:52:35.761Z,978.81
2019-03-25T10:53:35.721Z,978.82
2019-03-25T10:54:35.666Z,978.88
2019-03-25T10:55:35.560Z,978.88
2019-03-25T10:56:35.447Z,978.95
2019-03-25T10:57:35.425Z,978.93
2019-03-25T10:58:35.338Z,978.99
2019-03-25T10:59:35.202Z,978.99
2019-03-25T11:00:35.181Z,979.00
2019-03-25T11:01:35.048Z,979.02
2019-03-25T11:02:35.002Z,979.01
2019-03-25T11:03:34.880Z,979.03
2019-03-25T11:04:34.810Z,978.99
2019-03-25T11:05:34.811Z,979.00
2019-03-25T11:06:34.640Z,979.07
2019-03-25T11:07:34.737Z,979.01
2019-03-25T11:08:34.527Z,979.11
2019-03-25T11:09:34.399Z,979.10
2019-03-25T11:10:34.345Z,979.11
2019-03-25T11:11:34.253Z,979.07
2019-03-25T11:12:34.168Z,979.07
2019-03-25T11:13:34.119Z,978.99
2019-03-25T11:14:34.064Z,979.06
2019-03-25T11:15:33.918Z,979.05
2019-03-25T11:16:33.858Z,979.03
2019-03-25T11:17:33.763Z,979.04
2019-03-25T11:18:33.751Z,979.04
2019-03-25T11:19:33.665Z,979.10
2019-03-25T11:20:33.559Z,979.10
2019-03-25T11:21:33.480Z,979.11
2019-03-25T11:22:33.402Z,979.11
2019-03-25T11:23:33.404Z,979.11
2019-03-25T11:24:33.213Z,979.09
2019-03-25T11:25:33.152Z,979.13
2019-03-25T11:26:33.156Z,979.02
2019-03-25T11:27:33.030Z,979.03
2019-03-25T11:28:33.021Z,979.03
2019-03-25T11:29:32.846Z,979.06
2019-03-25T11:30:32.713Z,979.02
2019-03-25T11:31:32.773Z,979.04
2019-03-25T11:32:32.591Z,979.01
2019-03-25T11:33:32.585Z,978.99
2019-03-25T11:34:32.563Z,978.93
2019-03-25T11:35:32.419Z,978.88
2019-03-25T11:36:32.321Z,978.96
2019-03-25T11:37:32.220Z,978.89
2019-03-25T11:38:32.191Z,979.01
2019-03-25T11:39:32.044Z,978.98
2019-03-25T11:40:31.995Z,978.89
2019-03-25T11:41:31.954Z,978.90
2019-03-25T11:42:31.870Z,978.90
2019-03-25T11:43:31.792Z,978.90
2019-03-25T11:44:31.674Z,978.94
2019-03-25T11:45:31.606Z,978.97
2019-03-25T11:46:31.585Z,978.98
2019-03-25T11:47:31.359Z,978.94
2019-03-25T11:48:31.392Z,978.89
2019-03-25T11:49:31.392Z,978.96
2019-03-25T11:50:31.164Z,978.90
2019-03-25T11:51:31.067Z,978.92
2019-03-25T11:52:30.971Z,978.89
2019-03-25T11:53:30.894Z,978.89
2019-03-25T11:54:30.779Z,978.89
2019-03-25T11:55:30.766Z,978.86
2019-03-25T11:56:30.694Z,978.93
2019-03-25T11:57:30.588Z,978.88
2019-03-25T11:58:30.494Z,978.87
2019-03-25T11:59:30.387Z,978.85
2019-03-25T12:00:30.368Z,978.83
2019-03-25T12:01:30.274Z,978.78
2019-03-25T12:02:30.224Z,978.71
2019-03-25T12:03:30.114Z,978.74
2019-03-25T12:04:30.044Z,978.67
2019-03-25T12:05:29.905Z,978.63
2019-03-25T12:06:29.827Z,978.70
2019-03-25T12:07:29.750Z,978.62
2019-03-25T12:08:29.663Z,978.66
2019-03-25T12:09:29.639Z,978.66
2019-03-25T12:10:29.511Z,978.61
2019-03-25T12:11:29.483Z,978.64
2019-03-25T12:12:29.352Z,978.59
2019-03-25T12:13:29.285Z,978.60
2019-03-25T12:14:29.264Z,978.64
2019-03-25T12:15:29.113Z,978.69
2019-03-25T12:16:29.042Z,978.77
2019-03-25T12:17:28.945Z,978.69
2019-03-25T12:18:28.978Z,978.68
2019-03-25T12:19:28.802Z,978.70
2019-03-25T12:20:28.762Z,978.63
2019-03-25T12:21:28.636Z,978.57
2019-03-25T12:22:28.617Z,978.61
2019-03-25T12:23:28.513Z,978.61
2019-03-25T12:24:28.444Z,978.63
2019-03-25T12:25:28.355Z,978.72
2019-03-25T12:26:28.284Z,978.64
2019-03-25T12:27:28.195Z,978.60